sensor_id;sensor_type;location;lat;lon;timestamp;temperature;humidity
51902;DHT22;37929;53.218;6.548;2023-07-30T00:02:23;16.70;99.90
51902;DHT22;37929;53.218;6.548;2023-07-30T00:04:49;16.70;99.90
51902;DHT22;37929;53.218;6.548;2023-07-30T00:07:15;16.70;99.90
51902;DHT22;37929;53.218;6.548;2023-07-30T00:09:40;16.70;99.90
51902;DHT22;37929;53.218;6.548;2023-07-30T00:12:07;16.70;99.90
51902;DHT22;37929;53.218;6.548;2023-07-30T00:14:34;16.70;99.90
51902;DHT22;37929;53.218;6.548;2023-07-30T00:17:00;16.70;99.90
51902;DHT22;37929;53.218;6.548;2023-07-30T00:19:25;16.60;99.90
51902;DHT22;37929;53.218;6.548;2023-07-30T00:21:51;16.60;99.90
51902;DHT22;37929;53.218;6.548;2023-07-30T00:24:17;16.60;99.90
51902;DHT22;37929;53.218;6.548;2023-07-30T00:26:43;16.60;99.90
51902;DHT22;37929;53.218;6.548;2023-07-30T00:29:08;16.60;99.90
51902;DHT22;37929;53.218;6.548;2023-07-30T00:31:34;16.60;99.90
51902;DHT22;37929;53.218;6.548;2023-07-30T00:34:00;16.60;99.90
51902;DHT22;37929;53.218;6.548;2023-07-30T00:36:26;16.50;99.90
51902;DHT22;37929;53.218;6.548;2023-07-30T00:38:52;16.50;99.90
51902;DHT22;37929;53.218;6.548;2023-07-30T00:41:18;16.50;99.90
51902;DHT22;37929;53.218;6.548;2023-07-30T00:43:44;16.50;99.90
51902;DHT22;37929;53.218;6.548;2023-07-30T00:46:11;16.50;99.90
51902;DHT22;37929;53.218;6.548;2023-07-30T00:48:37;16.40;99.90
51902;DHT22;37929;53.218;6.548;2023-07-30T00:51:11;16.40;99.90
51902;DHT22;37929;53.218;6.548;2023-07-30T00:53:39;16.40;99.90
51902;DHT22;37929;53.218;6.548;2023-07-30T00:56:05;16.40;99.90
51902;DHT22;37929;53.218;6.548;2023-07-30T00:58:31;16.40;99.90
51902;DHT22;37929;53.218;6.548;2023-07-30T01:00:58;16.30;99.90
51902;DHT22;37929;53.218;6.548;2023-07-30T01:03:24;16.30;99.90
51902;DHT22;37929;53.218;6.548;2023-07-30T01:05:51;16.30;99.90
51902;DHT22;37929;53.218;6.548;2023-07-30T01:08:16;16.20;99.90
51902;DHT22;37929;53.218;6.548;2023-07-30T01:10:42;16.30;99.90
51902;DHT22;37929;53.218;6.548;2023-07-30T01:13:10;16.20;99.90
51902;DHT22;37929;53.218;6.548;2023-07-30T01:15:37;16.20;99.90
51902;DHT22;37929;53.218;6.548;2023-07-30T01:18:03;16.20;99.90
51902;DHT22;37929;53.218;6.548;2023-07-30T01:20:32;16.20;99.90
51902;DHT22;37929;53.218;6.548;2023-07-30T01:22:59;16.20;99.90
51902;DHT22;37929;53.218;6.548;2023-07-30T01:25:28;16.20;99.90
51902;DHT22;37929;53.218;6.548;2023-07-30T01:28:00;16.20;99.90
51902;DHT22;37929;53.218;6.548;2023-07-30T01:30:34;16.20;99.90
51902;DHT22;37929;53.218;6.548;2023-07-30T01:33:03;16.20;99.90
51902;DHT22;37929;53.218;6.548;2023-07-30T01:35:30;16.20;99.90
51902;DHT22;37929;53.218;6.548;2023-07-30T01:37:56;16.20;99.90
51902;DHT22;37929;53.218;6.548;2023-07-30T01:40:22;16.20;99.90
51902;DHT22;37929;53.218;6.548;2023-07-30T01:42:51;16.20;99.90
51902;DHT22;37929;53.218;6.548;2023-07-30T01:45:17;16.20;99.90
51902;DHT22;37929;53.218;6.548;2023-07-30T01:47:43;16.20;99.90
51902;DHT22;37929;53.218;6.548;2023-07-30T01:50:09;16.20;99.90
51902;DHT22;37929;53.218;6.548;2023-07-30T01:52:35;16.20;99.90
51902;DHT22;37929;53.218;6.548;2023-07-30T01:55:01;16.10;99.90
51902;DHT22;37929;53.218;6.548;2023-07-30T01:57:27;16.20;99.90
51902;DHT22;37929;53.218;6.548;2023-07-30T01:59:52;16.20;99.90
51902;DHT22;37929;53.218;6.548;2023-07-30T02:02:18;16.20;99.90
51902;DHT22;37929;53.218;6.548;2023-07-30T02:04:44;16.20;99.90
51902;DHT22;37929;53.218;6.548;2023-07-30T02:07:10;16.20;99.90
51902;DHT22;37929;53.218;6.548;2023-07-30T02:09:36;16.20;99.90
51902;DHT22;37929;53.218;6.548;2023-07-30T02:12:02;16.20;99.90
51902;DHT22;37929;53.218;6.548;2023-07-30T02:14:27;16.20;99.90
51902;DHT22;37929;53.218;6.548;2023-07-30T02:16:53;16.20;99.90
51902;DHT22;37929;53.218;6.548;2023-07-30T02:19:19;16.20;99.90
51902;DHT22;37929;53.218;6.548;2023-07-30T02:21:45;16.20;99.90
51902;DHT22;37929;53.218;6.548;2023-07-30T02:24:10;16.30;99.90
51902;DHT22;37929;53.218;6.548;2023-07-30T02:26:40;16.20;99.90
51902;DHT22;37929;53.218;6.548;2023-07-30T02:29:07;16.20;99.90
51902;DHT22;37929;53.218;6.548;2023-07-30T02:31:36;16.30;99.90
51902;DHT22;37929;53.218;6.548;2023-07-30T02:34:01;16.20;99.90
51902;DHT22;37929;53.218;6.548;2023-07-30T02:36:27;16.30;99.90
51902;DHT22;37929;53.218;6.548;2023-07-30T02:38:53;16.30;99.90
51902;DHT22;37929;53.218;6.548;2023-07-30T02:41:19;16.30;99.90
51902;DHT22;37929;53.218;6.548;2023-07-30T02:43:44;16.20;99.90
51902;DHT22;37929;53.218;6.548;2023-07-30T02:46:10;16.20;99.90
51902;DHT22;37929;53.218;6.548;2023-07-30T02:48:36;16.20;99.90
51902;DHT22;37929;53.218;6.548;2023-07-30T02:51:02;16.20;99.90
51902;DHT22;37929;53.218;6.548;2023-07-30T02:53:28;16.40;99.90
51902;DHT22;37929;53.218;6.548;2023-07-30T02:55:54;16.20;99.90
51902;DHT22;37929;53.218;6.548;2023-07-30T02:58:19;16.10;99.90
51902;DHT22;37929;53.218;6.548;2023-07-30T03:00:48;16.20;99.90
51902;DHT22;37929;53.218;6.548;2023-07-30T03:03:13;16.20;99.90
51902;DHT22;37929;53.218;6.548;2023-07-30T03:05:42;16.10;99.90
51902;DHT22;37929;53.218;6.548;2023-07-30T03:08:09;16.10;99.90
51902;DHT22;37929;53.218;6.548;2023-07-30T03:10:36;16.10;99.90
51902;DHT22;37929;53.218;6.548;2023-07-30T03:13:02;16.10;99.90
51902;DHT22;37929;53.218;6.548;2023-07-30T03:15:28;16.00;99.90
51902;DHT22;37929;53.218;6.548;2023-07-30T03:17:53;16.10;99.90
51902;DHT22;37929;53.218;6.548;2023-07-30T03:20:19;16.00;99.90
51902;DHT22;37929;53.218;6.548;2023-07-30T03:22:45;16.00;99.90
51902;DHT22;37929;53.218;6.548;2023-07-30T03:25:11;16.00;99.90
51902;DHT22;37929;53.218;6.548;2023-07-30T03:27:37;16.00;99.90
51902;DHT22;37929;53.218;6.548;2023-07-30T03:30:03;15.90;99.90
51902;DHT22;37929;53.218;6.548;2023-07-30T03:32:30;15.80;99.90
51902;DHT22;37929;53.218;6.548;2023-07-30T03:34:56;15.80;99.90
51902;DHT22;37929;53.218;6.548;2023-07-30T03:37:21;15.80;99.90
51902;DHT22;37929;53.218;6.548;2023-07-30T03:39:47;15.80;99.90
51902;DHT22;37929;53.218;6.548;2023-07-30T03:42:13;15.80;99.90
51902;DHT22;37929;53.218;6.548;2023-07-30T03:44:38;15.80;99.90
51902;DHT22;37929;53.218;6.548;2023-07-30T03:47:04;15.80;99.90
51902;DHT22;37929;53.218;6.548;2023-07-30T03:49:30;15.80;99.90
51902;DHT22;37929;53.218;6.548;2023-07-30T03:51:56;15.80;99.90
51902;DHT22;37929;53.218;6.548;2023-07-30T03:54:22;15.80;99.90
51902;DHT22;37929;53.218;6.548;2023-07-30T03:56:47;15.80;99.90
51902;DHT22;37929;53.218;6.548;2023-07-30T03:59:13;15.80;99.90
51902;DHT22;37929;53.218;6.548;2023-07-30T04:01:39;15.80;99.90
51902;DHT22;37929;53.218;6.548;2023-07-30T04:04:05;15.80;99.90
51902;DHT22;37929;53.218;6.548;2023-07-30T04:06:31;15.70;99.90
51902;DHT22;37929;53.218;6.548;2023-07-30T04:08:56;15.80;99.90
51902;DHT22;37929;53.218;6.548;2023-07-30T04:11:22;15.70;99.90
51902;DHT22;37929;53.218;6.548;2023-07-30T04:13:48;15.80;99.90
51902;DHT22;37929;53.218;6.548;2023-07-30T04:16:14;15.80;99.90
51902;DHT22;37929;53.218;6.548;2023-07-30T04:18:39;15.80;99.90
51902;DHT22;37929;53.218;6.548;2023-07-30T04:21:05;15.80;99.90
51902;DHT22;37929;53.218;6.548;2023-07-30T04:23:31;15.80;99.90
51902;DHT22;37929;53.218;6.548;2023-07-30T04:25:57;15.80;99.90
51902;DHT22;37929;53.218;6.548;2023-07-30T04:28:22;15.70;99.90
51902;DHT22;37929;53.218;6.548;2023-07-30T04:30:48;15.80;99.90
51902;DHT22;37929;53.218;6.548;2023-07-30T04:33:14;15.70;99.90
51902;DHT22;37929;53.218;6.548;2023-07-30T04:35:40;15.70;99.90
51902;DHT22;37929;53.218;6.548;2023-07-30T04:38:09;15.70;99.90
51902;DHT22;37929;53.218;6.548;2023-07-30T04:40:35;15.80;99.90
51902;DHT22;37929;53.218;6.548;2023-07-30T04:43:01;15.80;99.90
51902;DHT22;37929;53.218;6.548;2023-07-30T04:45:26;15.80;99.90
51902;DHT22;37929;53.218;6.548;2023-07-30T04:47:52;15.80;99.90
51902;DHT22;37929;53.218;6.548;2023-07-30T04:50:18;15.80;99.90
51902;DHT22;37929;53.218;6.548;2023-07-30T04:52:44;15.80;99.90
51902;DHT22;37929;53.218;6.548;2023-07-30T04:55:09;15.80;99.90
51902;DHT22;37929;53.218;6.548;2023-07-30T04:57:35;15.90;99.90
51902;DHT22;37929;53.218;6.548;2023-07-30T05:00:01;15.90;99.90
51902;DHT22;37929;53.218;6.548;2023-07-30T05:02:27;15.90;99.90
51902;DHT22;37929;53.218;6.548;2023-07-30T05:04:53;15.90;99.90
51902;DHT22;37929;53.218;6.548;2023-07-30T05:07:18;16.00;99.90
51902;DHT22;37929;53.218;6.548;2023-07-30T05:09:44;16.00;99.90
51902;DHT22;37929;53.218;6.548;2023-07-30T05:12:10;16.00;99.90
51902;DHT22;37929;53.218;6.548;2023-07-30T05:14:36;16.00;99.90
51902;DHT22;37929;53.218;6.548;2023-07-30T05:17:01;16.00;99.90
51902;DHT22;37929;53.218;6.548;2023-07-30T05:19:28;16.00;99.90
51902;DHT22;37929;53.218;6.548;2023-07-30T05:21:54;16.10;99.90
51902;DHT22;37929;53.218;6.548;2023-07-30T05:24:21;16.10;99.90
51902;DHT22;37929;53.218;6.548;2023-07-30T05:26:47;16.10;99.90
51902;DHT22;37929;53.218;6.548;2023-07-30T05:29:12;16.10;99.90
51902;DHT22;37929;53.218;6.548;2023-07-30T05:31:38;16.10;99.90
51902;DHT22;37929;53.218;6.548;2023-07-30T05:34:04;16.20;99.90
51902;DHT22;37929;53.218;6.548;2023-07-30T05:36:39;16.20;99.90
51902;DHT22;37929;53.218;6.548;2023-07-30T05:39:05;16.20;99.90
51902;DHT22;37929;53.218;6.548;2023-07-30T05:41:30;16.30;99.90
51902;DHT22;37929;53.218;6.548;2023-07-30T05:43:56;16.30;99.90
51902;DHT22;37929;53.218;6.548;2023-07-30T05:46:22;16.30;99.90
51902;DHT22;37929;53.218;6.548;2023-07-30T05:48:48;16.40;99.90
51902;DHT22;37929;53.218;6.548;2023-07-30T05:51:13;16.40;99.90
51902;DHT22;37929;53.218;6.548;2023-07-30T05:53:39;16.50;99.90
51902;DHT22;37929;53.218;6.548;2023-07-30T05:56:05;16.50;99.90
51902;DHT22;37929;53.218;6.548;2023-07-30T05:58:31;16.50;99.90
51902;DHT22;37929;53.218;6.548;2023-07-30T06:00:57;16.60;99.90
51902;DHT22;37929;53.218;6.548;2023-07-30T06:03:23;16.60;99.90
51902;DHT22;37929;53.218;6.548;2023-07-30T06:05:48;16.60;99.90
51902;DHT22;37929;53.218;6.548;2023-07-30T06:08:14;16.70;99.90
51902;DHT22;37929;53.218;6.548;2023-07-30T06:10:40;16.70;99.90
51902;DHT22;37929;53.218;6.548;2023-07-30T06:13:06;16.70;99.90
51902;DHT22;37929;53.218;6.548;2023-07-30T06:15:32;16.70;99.90
51902;DHT22;37929;53.218;6.548;2023-07-30T06:18:01;16.80;99.90
51902;DHT22;37929;53.218;6.548;2023-07-30T06:20:27;16.80;99.90
51902;DHT22;37929;53.218;6.548;2023-07-30T06:22:53;16.80;99.90
51902;DHT22;37929;53.218;6.548;2023-07-30T06:25:19;16.80;99.90
51902;DHT22;37929;53.218;6.548;2023-07-30T06:27:45;16.80;99.90
51902;DHT22;37929;53.218;6.548;2023-07-30T06:30:11;16.80;99.90
51902;DHT22;37929;53.218;6.548;2023-07-30T06:32:37;16.90;99.90
51902;DHT22;37929;53.218;6.548;2023-07-30T06:35:03;16.90;99.90
51902;DHT22;37929;53.218;6.548;2023-07-30T06:37:29;16.90;99.90
51902;DHT22;37929;53.218;6.548;2023-07-30T06:39:56;16.90;99.90
51902;DHT22;37929;53.218;6.548;2023-07-30T06:42:21;17.00;99.90
51902;DHT22;37929;53.218;6.548;2023-07-30T06:44:50;17.00;99.90
51902;DHT22;37929;53.218;6.548;2023-07-30T06:47:16;17.10;99.90
51902;DHT22;37929;53.218;6.548;2023-07-30T06:49:42;17.10;99.90
51902;DHT22;37929;53.218;6.548;2023-07-30T06:52:07;17.10;99.90
51902;DHT22;37929;53.218;6.548;2023-07-30T06:54:33;17.10;99.90
51902;DHT22;37929;53.218;6.548;2023-07-30T06:56:59;17.10;99.90
51902;DHT22;37929;53.218;6.548;2023-07-30T06:59:25;17.10;99.90
51902;DHT22;37929;53.218;6.548;2023-07-30T07:01:51;17.10;99.90
51902;DHT22;37929;53.218;6.548;2023-07-30T07:04:17;17.20;99.90
51902;DHT22;37929;53.218;6.548;2023-07-30T07:06:44;17.20;99.90
51902;DHT22;37929;53.218;6.548;2023-07-30T07:09:10;17.20;99.90
51902;DHT22;37929;53.218;6.548;2023-07-30T07:11:35;17.20;99.90
51902;DHT22;37929;53.218;6.548;2023-07-30T07:14:04;17.30;99.90
51902;DHT22;37929;53.218;6.548;2023-07-30T07:16:33;17.40;99.90
51902;DHT22;37929;53.218;6.548;2023-07-30T07:18:59;17.40;99.90
51902;DHT22;37929;53.218;6.548;2023-07-30T07:21:28;17.40;99.90
51902;DHT22;37929;53.218;6.548;2023-07-30T07:23:57;17.40;99.90
51902;DHT22;37929;53.218;6.548;2023-07-30T07:26:26;17.40;99.90
51902;DHT22;37929;53.218;6.548;2023-07-30T07:28:51;17.50;99.90
51902;DHT22;37929;53.218;6.548;2023-07-30T07:31:30;17.50;99.90
51902;DHT22;37929;53.218;6.548;2023-07-30T07:34:02;17.60;99.90
51902;DHT22;37929;53.218;6.548;2023-07-30T07:36:31;17.70;99.90
51902;DHT22;37929;53.218;6.548;2023-07-30T07:41:50;17.80;99.90
51902;DHT22;37929;53.218;6.548;2023-07-30T07:44:26;17.90;99.90
51902;DHT22;37929;53.218;6.548;2023-07-30T07:46:51;18.10;99.90
51902;DHT22;37929;53.218;6.548;2023-07-30T07:49:17;18.20;99.90
51902;DHT22;37929;53.218;6.548;2023-07-30T07:51:43;18.30;99.90
51902;DHT22;37929;53.218;6.548;2023-07-30T07:54:12;18.40;99.90
51902;DHT22;37929;53.218;6.548;2023-07-30T07:56:38;18.60;99.90
51902;DHT22;37929;53.218;6.548;2023-07-30T07:59:04;18.50;99.90
51902;DHT22;37929;53.218;6.548;2023-07-30T08:01:29;18.50;99.90
51902;DHT22;37929;53.218;6.548;2023-07-30T08:03:58;18.40;99.90
51902;DHT22;37929;53.218;6.548;2023-07-30T08:06:25;18.30;99.90
51902;DHT22;37929;53.218;6.548;2023-07-30T08:08:51;18.20;99.90
51902;DHT22;37929;53.218;6.548;2023-07-30T08:11:17;18.20;99.90
51902;DHT22;37929;53.218;6.548;2023-07-30T08:13:43;18.10;99.90
51902;DHT22;37929;53.218;6.548;2023-07-30T08:16:09;18.10;99.90
51902;DHT22;37929;53.218;6.548;2023-07-30T08:18:34;18.10;99.90
51902;DHT22;37929;53.218;6.548;2023-07-30T08:21:00;18.00;99.90
51902;DHT22;37929;53.218;6.548;2023-07-30T08:23:26;18.00;99.90
51902;DHT22;37929;53.218;6.548;2023-07-30T08:25:52;18.00;99.90
51902;DHT22;37929;53.218;6.548;2023-07-30T08:28:18;18.00;99.90
51902;DHT22;37929;53.218;6.548;2023-07-30T08:30:44;18.00;99.90
51902;DHT22;37929;53.218;6.548;2023-07-30T08:33:10;18.00;99.90
51902;DHT22;37929;53.218;6.548;2023-07-30T08:35:35;18.00;99.90
51902;DHT22;37929;53.218;6.548;2023-07-30T08:38:01;18.00;99.90
51902;DHT22;37929;53.218;6.548;2023-07-30T08:40:27;17.90;99.90
51902;DHT22;37929;53.218;6.548;2023-07-30T08:42:53;17.90;99.90
51902;DHT22;37929;53.218;6.548;2023-07-30T08:45:20;17.90;99.90
51902;DHT22;37929;53.218;6.548;2023-07-30T08:47:46;17.80;99.90
51902;DHT22;37929;53.218;6.548;2023-07-30T08:50:13;17.80;99.90
51902;DHT22;37929;53.218;6.548;2023-07-30T08:52:40;17.90;99.90
51902;DHT22;37929;53.218;6.548;2023-07-30T08:55:06;17.90;99.90
51902;DHT22;37929;53.218;6.548;2023-07-30T08:57:33;17.90;99.90
51902;DHT22;37929;53.218;6.548;2023-07-30T09:00:08;17.90;99.90
51902;DHT22;37929;53.218;6.548;2023-07-30T09:02:44;17.90;99.90
51902;DHT22;37929;53.218;6.548;2023-07-30T09:05:13;18.00;99.90
51902;DHT22;37929;53.218;6.548;2023-07-30T09:07:39;18.00;99.90
51902;DHT22;37929;53.218;6.548;2023-07-30T09:10:05;18.20;99.90
51902;DHT22;37929;53.218;6.548;2023-07-30T09:12:35;18.20;99.90
51902;DHT22;37929;53.218;6.548;2023-07-30T09:15:05;18.20;99.90
51902;DHT22;37929;53.218;6.548;2023-07-30T09:17:32;18.30;99.90
51902;DHT22;37929;53.218;6.548;2023-07-30T09:20:05;18.30;99.90
51902;DHT22;37929;53.218;6.548;2023-07-30T09:22:33;18.30;99.90
51902;DHT22;37929;53.218;6.548;2023-07-30T09:25:02;18.20;99.90
51902;DHT22;37929;53.218;6.548;2023-07-30T09:27:28;18.20;99.90
51902;DHT22;37929;53.218;6.548;2023-07-30T09:29:56;18.20;99.90
51902;DHT22;37929;53.218;6.548;2023-07-30T09:32:30;18.10;99.90
51902;DHT22;37929;53.218;6.548;2023-07-30T09:35:07;18.10;99.90
51902;DHT22;37929;53.218;6.548;2023-07-30T09:37:37;18.00;99.90
51902;DHT22;37929;53.218;6.548;2023-07-30T09:40:10;18.00;99.90
51902;DHT22;37929;53.218;6.548;2023-07-30T09:42:37;18.00;99.90
51902;DHT22;37929;53.218;6.548;2023-07-30T09:45:06;18.10;99.90
51902;DHT22;37929;53.218;6.548;2023-07-30T09:47:37;18.00;99.90
51902;DHT22;37929;53.218;6.548;2023-07-30T09:50:03;17.90;99.90
51902;DHT22;37929;53.218;6.548;2023-07-30T09:52:30;17.90;99.90
51902;DHT22;37929;53.218;6.548;2023-07-30T09:54:57;17.90;99.90
51902;DHT22;37929;53.218;6.548;2023-07-30T09:57:24;18.00;99.90
51902;DHT22;37929;53.218;6.548;2023-07-30T09:59:50;18.00;99.90
51902;DHT22;37929;53.218;6.548;2023-07-30T10:02:16;18.10;99.90
51902;DHT22;37929;53.218;6.548;2023-07-30T10:04:43;18.10;99.90
51902;DHT22;37929;53.218;6.548;2023-07-30T10:07:16;18.10;99.90
51902;DHT22;37929;53.218;6.548;2023-07-30T10:09:45;18.10;99.90
51902;DHT22;37929;53.218;6.548;2023-07-30T10:12:21;18.10;99.90
51902;DHT22;37929;53.218;6.548;2023-07-30T10:14:48;18.10;99.90
51902;DHT22;37929;53.218;6.548;2023-07-30T10:17:16;18.10;99.90
51902;DHT22;37929;53.218;6.548;2023-07-30T10:19:47;18.10;99.90
51902;DHT22;37929;53.218;6.548;2023-07-30T10:24:40;18.20;99.90
51902;DHT22;37929;53.218;6.548;2023-07-30T10:27:07;18.20;99.90
51902;DHT22;37929;53.218;6.548;2023-07-30T10:29:34;18.30;99.90
51902;DHT22;37929;53.218;6.548;2023-07-30T10:32:01;18.40;99.90
51902;DHT22;37929;53.218;6.548;2023-07-30T10:34:48;18.50;99.90
51902;DHT22;37929;53.218;6.548;2023-07-30T10:37:24;18.40;99.90
51902;DHT22;37929;53.218;6.548;2023-07-30T10:39:51;18.20;99.90
51902;DHT22;37929;53.218;6.548;2023-07-30T10:42:17;18.00;99.90
51902;DHT22;37929;53.218;6.548;2023-07-30T10:44:44;17.70;99.90
51902;DHT22;37929;53.218;6.548;2023-07-30T10:47:11;17.50;99.90
51902;DHT22;37929;53.218;6.548;2023-07-30T10:49:41;17.30;99.90
51902;DHT22;37929;53.218;6.548;2023-07-30T10:52:09;17.40;99.90
51902;DHT22;37929;53.218;6.548;2023-07-30T10:54:36;17.40;99.90
51902;DHT22;37929;53.218;6.548;2023-07-30T10:57:05;17.40;99.90
51902;DHT22;37929;53.218;6.548;2023-07-30T10:59:38;17.40;99.90
51902;DHT22;37929;53.218;6.548;2023-07-30T11:02:07;17.20;99.90
51902;DHT22;37929;53.218;6.548;2023-07-30T11:04:35;17.50;99.90
51902;DHT22;37929;53.218;6.548;2023-07-30T11:07:00;17.60;99.90
51902;DHT22;37929;53.218;6.548;2023-07-30T11:09:29;17.70;99.90
51902;DHT22;37929;53.218;6.548;2023-07-30T11:11:58;17.90;99.90
51902;DHT22;37929;53.218;6.548;2023-07-30T11:14:25;18.10;99.90
51902;DHT22;37929;53.218;6.548;2023-07-30T11:16:59;18.20;99.90
51902;DHT22;37929;53.218;6.548;2023-07-30T11:19:26;18.40;99.90
51902;DHT22;37929;53.218;6.548;2023-07-30T11:21:53;18.40;99.90
51902;DHT22;37929;53.218;6.548;2023-07-30T11:24:20;18.50;99.90
51902;DHT22;37929;53.218;6.548;2023-07-30T11:26:57;18.40;99.90
51902;DHT22;37929;53.218;6.548;2023-07-30T11:29:24;18.50;99.90
51902;DHT22;37929;53.218;6.548;2023-07-30T11:31:49;18.60;99.90
51902;DHT22;37929;53.218;6.548;2023-07-30T11:34:15;18.70;99.90
51902;DHT22;37929;53.218;6.548;2023-07-30T11:36:42;18.80;99.90
51902;DHT22;37929;53.218;6.548;2023-07-30T11:39:09;18.90;99.90
51902;DHT22;37929;53.218;6.548;2023-07-30T11:41:35;19.10;99.90
51902;DHT22;37929;53.218;6.548;2023-07-30T11:44:02;19.40;99.90
51902;DHT22;37929;53.218;6.548;2023-07-30T11:46:28;19.60;99.90
51902;DHT22;37929;53.218;6.548;2023-07-30T11:49:12;19.70;99.90
51902;DHT22;37929;53.218;6.548;2023-07-30T11:51:38;19.80;99.90
51902;DHT22;37929;53.218;6.548;2023-07-30T11:54:04;20.00;99.90
51902;DHT22;37929;53.218;6.548;2023-07-30T11:56:32;20.10;99.90
51902;DHT22;37929;53.218;6.548;2023-07-30T11:59:07;20.10;99.90
51902;DHT22;37929;53.218;6.548;2023-07-30T12:01:34;20.10;99.90
51902;DHT22;37929;53.218;6.548;2023-07-30T12:04:02;20.10;99.90
51902;DHT22;37929;53.218;6.548;2023-07-30T12:06:41;20.10;99.90
51902;DHT22;37929;53.218;6.548;2023-07-30T12:09:18;20.00;99.90
51902;DHT22;37929;53.218;6.548;2023-07-30T12:14:16;19.70;99.90
51902;DHT22;37929;53.218;6.548;2023-07-30T12:16:41;19.50;99.90
51902;DHT22;37929;53.218;6.548;2023-07-30T12:19:08;19.20;99.90
51902;DHT22;37929;53.218;6.548;2023-07-30T12:21:34;19.00;99.90
51902;DHT22;37929;53.218;6.548;2023-07-30T12:23:59;18.80;99.90
51902;DHT22;37929;53.218;6.548;2023-07-30T12:26:25;18.70;99.90
51902;DHT22;37929;53.218;6.548;2023-07-30T12:28:51;18.60;99.90
51902;DHT22;37929;53.218;6.548;2023-07-30T12:31:17;18.60;99.90
51902;DHT22;37929;53.218;6.548;2023-07-30T12:33:43;18.70;99.90
51902;DHT22;37929;53.218;6.548;2023-07-30T12:36:09;19.00;99.90
51902;DHT22;37929;53.218;6.548;2023-07-30T12:38:35;19.10;99.90
51902;DHT22;37929;53.218;6.548;2023-07-30T12:41:00;19.20;99.90
51902;DHT22;37929;53.218;6.548;2023-07-30T12:43:26;19.40;99.90
51902;DHT22;37929;53.218;6.548;2023-07-30T12:45:52;19.60;99.90
51902;DHT22;37929;53.218;6.548;2023-07-30T12:48:18;19.60;99.90
51902;DHT22;37929;53.218;6.548;2023-07-30T12:50:44;19.70;99.90
51902;DHT22;37929;53.218;6.548;2023-07-30T12:53:11;19.80;99.90
51902;DHT22;37929;53.218;6.548;2023-07-30T12:55:36;19.90;99.90
51902;DHT22;37929;53.218;6.548;2023-07-30T12:58:07;19.90;99.90
51902;DHT22;37929;53.218;6.548;2023-07-30T13:00:34;19.90;99.90
51902;DHT22;37929;53.218;6.548;2023-07-30T13:03:00;20.10;99.90
51902;DHT22;37929;53.218;6.548;2023-07-30T13:05:26;20.20;99.90
51902;DHT22;37929;53.218;6.548;2023-07-30T13:07:51;20.30;99.90
51902;DHT22;37929;53.218;6.548;2023-07-30T13:10:17;20.40;99.90
51902;DHT22;37929;53.218;6.548;2023-07-30T13:12:43;20.50;99.90
51902;DHT22;37929;53.218;6.548;2023-07-30T13:15:09;20.60;99.90
51902;DHT22;37929;53.218;6.548;2023-07-30T13:17:37;20.60;99.90
51902;DHT22;37929;53.218;6.548;2023-07-30T13:20:04;20.70;99.90
51902;DHT22;37929;53.218;6.548;2023-07-30T13:22:31;20.80;99.90
51902;DHT22;37929;53.218;6.548;2023-07-30T13:24:57;20.80;99.90
51902;DHT22;37929;53.218;6.548;2023-07-30T13:27:23;20.60;99.90
51902;DHT22;37929;53.218;6.548;2023-07-30T13:29:49;20.40;99.90
51902;DHT22;37929;53.218;6.548;2023-07-30T13:32:15;20.40;99.90
51902;DHT22;37929;53.218;6.548;2023-07-30T13:34:41;20.30;99.90
51902;DHT22;37929;53.218;6.548;2023-07-30T13:37:06;20.40;99.90
51902;DHT22;37929;53.218;6.548;2023-07-30T13:39:32;20.50;99.90
51902;DHT22;37929;53.218;6.548;2023-07-30T13:41:58;20.60;99.90
51902;DHT22;37929;53.218;6.548;2023-07-30T13:44:24;20.60;99.90
51902;DHT22;37929;53.218;6.548;2023-07-30T13:46:50;20.60;99.90
51902;DHT22;37929;53.218;6.548;2023-07-30T13:49:16;20.60;99.90
51902;DHT22;37929;53.218;6.548;2023-07-30T13:51:41;20.60;99.90
51902;DHT22;37929;53.218;6.548;2023-07-30T13:54:07;20.70;99.90
51902;DHT22;37929;53.218;6.548;2023-07-30T13:56:36;20.70;99.90
51902;DHT22;37929;53.218;6.548;2023-07-30T13:59:04;20.80;99.90
51902;DHT22;37929;53.218;6.548;2023-07-30T14:01:30;20.80;99.90
51902;DHT22;37929;53.218;6.548;2023-07-30T14:03:56;20.80;99.90
51902;DHT22;37929;53.218;6.548;2023-07-30T14:06:22;20.70;99.90
51902;DHT22;37929;53.218;6.548;2023-07-30T14:08:48;20.60;99.90
51902;DHT22;37929;53.218;6.548;2023-07-30T14:11:14;20.50;99.90
51902;DHT22;37929;53.218;6.548;2023-07-30T14:13:40;20.50;99.90
51902;DHT22;37929;53.218;6.548;2023-07-30T14:16:06;20.50;99.90
51902;DHT22;37929;53.218;6.548;2023-07-30T14:18:33;20.60;99.90
51902;DHT22;37929;53.218;6.548;2023-07-30T14:20:59;20.70;99.90
51902;DHT22;37929;53.218;6.548;2023-07-30T14:23:25;20.90;99.90
51902;DHT22;37929;53.218;6.548;2023-07-30T14:25:50;20.90;99.90
51902;DHT22;37929;53.218;6.548;2023-07-30T14:28:16;20.80;99.90
51902;DHT22;37929;53.218;6.548;2023-07-30T14:30:42;20.60;99.90
51902;DHT22;37929;53.218;6.548;2023-07-30T14:33:13;20.60;99.90
51902;DHT22;37929;53.218;6.548;2023-07-30T14:35:39;20.60;99.90
51902;DHT22;37929;53.218;6.548;2023-07-30T14:38:06;20.60;99.90
51902;DHT22;37929;53.218;6.548;2023-07-30T14:40:32;20.60;99.90
51902;DHT22;37929;53.218;6.548;2023-07-30T14:42:58;20.50;99.90
51902;DHT22;37929;53.218;6.548;2023-07-30T14:45:27;20.60;99.90
51902;DHT22;37929;53.218;6.548;2023-07-30T14:47:53;20.50;99.90
51902;DHT22;37929;53.218;6.548;2023-07-30T14:50:18;20.40;99.90
51902;DHT22;37929;53.218;6.548;2023-07-30T14:52:44;20.30;99.90
51902;DHT22;37929;53.218;6.548;2023-07-30T14:55:10;20.20;99.90
51902;DHT22;37929;53.218;6.548;2023-07-30T14:57:37;20.10;99.90
51902;DHT22;37929;53.218;6.548;2023-07-30T15:00:03;20.00;99.90
51902;DHT22;37929;53.218;6.548;2023-07-30T15:02:29;19.70;99.90
51902;DHT22;37929;53.218;6.548;2023-07-30T15:04:55;19.40;99.90
51902;DHT22;37929;53.218;6.548;2023-07-30T15:07:21;19.20;99.90
51902;DHT22;37929;53.218;6.548;2023-07-30T15:09:53;19.00;99.90
51902;DHT22;37929;53.218;6.548;2023-07-30T15:12:20;18.40;99.90
51902;DHT22;37929;53.218;6.548;2023-07-30T15:14:46;18.20;99.90
51902;DHT22;37929;53.218;6.548;2023-07-30T15:17:12;17.80;99.90
51902;DHT22;37929;53.218;6.548;2023-07-30T15:19:38;17.60;99.90
51902;DHT22;37929;53.218;6.548;2023-07-30T15:22:04;17.60;99.90
51902;DHT22;37929;53.218;6.548;2023-07-30T15:24:30;17.60;99.90
51902;DHT22;37929;53.218;6.548;2023-07-30T15:26:56;17.60;99.90
51902;DHT22;37929;53.218;6.548;2023-07-30T15:29:22;17.50;99.90
51902;DHT22;37929;53.218;6.548;2023-07-30T15:31:51;17.50;99.90
51902;DHT22;37929;53.218;6.548;2023-07-30T15:34:17;17.60;99.90
51902;DHT22;37929;53.218;6.548;2023-07-30T15:36:43;17.60;99.90